sensor_id;sensor_type;location;lat;lon;timestamp;temperature;humidity
1413;DHT22;701;52.526;13.408;2023-02-24T00:01:48;8.80;43.10
1413;DHT22;701;52.526;13.408;2023-02-24T00:04:18;8.80;43.00
1413;DHT22;701;52.526;13.408;2023-02-24T00:06:45;8.80;42.90
1413;DHT22;701;52.526;13.408;2023-02-24T00:09:18;8.80;42.70
1413;DHT22;701;52.526;13.408;2023-02-24T00:11:56;8.70;42.60
1413;DHT22;701;52.526;13.408;2023-02-24T00:14:24;8.80;42.40
1413;DHT22;701;52.526;13.408;2023-02-24T00:16:52;8.80;42.20
1413;DHT22;701;52.526;13.408;2023-02-24T00:19:23;8.80;41.90
1413;DHT22;701;52.526;13.408;2023-02-24T00:21:50;8.70;41.90
1413;DHT22;701;52.526;13.408;2023-02-24T00:24:16;8.80;41.50
1413;DHT22;701;52.526;13.408;2023-02-24T00:26:42;8.70;41.30
1413;DHT22;701;52.526;13.408;2023-02-24T00:29:11;8.80;41.10
1413;DHT22;701;52.526;13.408;2023-02-24T00:31:38;8.80;41.20
1413;DHT22;701;52.526;13.408;2023-02-24T00:34:07;8.80;40.90
1413;DHT22;701;52.526;13.408;2023-02-24T00:36:33;8.70;40.60
1413;DHT22;701;52.526;13.408;2023-02-24T00:39:03;8.80;40.40
1413;DHT22;701;52.526;13.408;2023-02-24T00:41:40;8.80;40.00
1413;DHT22;701;52.526;13.408;2023-02-24T00:44:13;8.70;39.90
1413;DHT22;701;52.526;13.408;2023-02-24T00:46:41;8.70;39.90
1413;DHT22;701;52.526;13.408;2023-02-24T00:49:13;8.60;39.30
1413;DHT22;701;52.526;13.408;2023-02-24T00:51:43;8.60;39.10
1413;DHT22;701;52.526;13.408;2023-02-24T00:54:10;8.60;38.60
1413;DHT22;701;52.526;13.408;2023-02-24T00:56:42;8.60;38.20
1413;DHT22;701;52.526;13.408;2023-02-24T00:59:11;8.50;38.00
1413;DHT22;701;52.526;13.408;2023-02-24T01:01:37;8.50;37.10
1413;DHT22;701;52.526;13.408;2023-02-24T01:04:04;8.40;36.20
1413;DHT22;701;52.526;13.408;2023-02-24T01:06:31;8.30;35.10
1413;DHT22;701;52.526;13.408;2023-02-24T01:08:59;8.30;35.20
1413;DHT22;701;52.526;13.408;2023-02-24T01:11:31;8.30;34.40
1413;DHT22;701;52.526;13.408;2023-02-24T01:14:19;8.20;34.20
1413;DHT22;701;52.526;13.408;2023-02-24T01:16:45;8.10;33.00
1413;DHT22;701;52.526;13.408;2023-02-24T01:19:17;8.10;33.60
1413;DHT22;701;52.526;13.408;2023-02-24T01:21:43;8.10;32.90
1413;DHT22;701;52.526;13.408;2023-02-24T01:24:12;8.00;32.50
1413;DHT22;701;52.526;13.408;2023-02-24T01:26:40;7.90;32.10
1413;DHT22;701;52.526;13.408;2023-02-24T01:29:06;7.90;31.90
1413;DHT22;701;52.526;13.408;2023-02-24T01:31:36;7.90;32.10
1413;DHT22;701;52.526;13.408;2023-02-24T01:34:03;7.80;31.50
1413;DHT22;701;52.526;13.408;2023-02-24T01:36:31;7.80;30.40
1413;DHT22;701;52.526;13.408;2023-02-24T01:38:58;7.60;30.20
1413;DHT22;701;52.526;13.408;2023-02-24T01:41:25;7.50;29.30
1413;DHT22;701;52.526;13.408;2023-02-24T01:44:06;7.40;29.50
1413;DHT22;701;52.526;13.408;2023-02-24T01:46:37;7.40;29.30
1413;DHT22;701;52.526;13.408;2023-02-24T01:51:43;7.30;29.10
1413;DHT22;701;52.526;13.408;2023-02-24T01:54:12;7.20;29.00
1413;DHT22;701;52.526;13.408;2023-02-24T01:56:40;7.20;28.90
1413;DHT22;701;52.526;13.408;2023-02-24T01:59:08;7.10;28.70
1413;DHT22;701;52.526;13.408;2023-02-24T02:01:35;7.00;27.90
1413;DHT22;701;52.526;13.408;2023-02-24T02:04:17;6.90;27.60
1413;DHT22;701;52.526;13.408;2023-02-24T02:06:46;6.90;27.30
1413;DHT22;701;52.526;13.408;2023-02-24T02:09:13;6.80;27.50
1413;DHT22;701;52.526;13.408;2023-02-24T02:11:40;6.80;27.30
1413;DHT22;701;52.526;13.408;2023-02-24T02:14:07;6.70;27.00
1413;DHT22;701;52.526;13.408;2023-02-24T02:19:44;6.60;27.00
1413;DHT22;701;52.526;13.408;2023-02-24T02:39:17;6.30;26.50
1413;DHT22;701;52.526;13.408;2023-02-24T02:45:03;6.20;25.90
1413;DHT22;701;52.526;13.408;2023-02-24T02:47:38;6.10;25.90
1413;DHT22;701;52.526;13.408;2023-02-24T02:52:50;6.10;24.30
1413;DHT22;701;52.526;13.408;2023-02-24T02:57:53;6.00;24.30
1413;DHT22;701;52.526;13.408;2023-02-24T03:00:27;6.00;23.80
1413;DHT22;701;52.526;13.408;2023-02-24T03:02:58;5.90;23.50
1413;DHT22;701;52.526;13.408;2023-02-24T03:05:51;5.90;24.00
1413;DHT22;701;52.526;13.408;2023-02-24T03:08:24;5.90;23.50
1413;DHT22;701;52.526;13.408;2023-02-24T03:10:53;5.90;23.30
1413;DHT22;701;52.526;13.408;2023-02-24T03:13:23;5.80;23.30
1413;DHT22;701;52.526;13.408;2023-02-24T03:15:57;5.80;23.40
1413;DHT22;701;52.526;13.408;2023-02-24T03:18:31;5.80;23.80
1413;DHT22;701;52.526;13.408;2023-02-24T03:23:49;5.80;24.00
1413;DHT22;701;52.526;13.408;2023-02-24T03:26:26;5.80;23.80
1413;DHT22;701;52.526;13.408;2023-02-24T03:31:32;5.70;24.00
1413;DHT22;701;52.526;13.408;2023-02-24T03:34:14;5.70;23.80
1413;DHT22;701;52.526;13.408;2023-02-24T03:36:41;5.70;24.00
1413;DHT22;701;52.526;13.408;2023-02-24T03:39:08;5.70;24.00
1413;DHT22;701;52.526;13.408;2023-02-24T03:41:56;5.70;24.20
1413;DHT22;701;52.526;13.408;2023-02-24T03:44:24;5.80;24.20
1413;DHT22;701;52.526;13.408;2023-02-24T03:46:51;5.80;24.10
1413;DHT22;701;52.526;13.408;2023-02-24T03:49:19;5.80;24.00
1413;DHT22;701;52.526;13.408;2023-02-24T03:55:08;5.70;24.20
1413;DHT22;701;52.526;13.408;2023-02-24T04:00:45;5.70;24.00
1413;DHT22;701;52.526;13.408;2023-02-24T04:09:17;5.60;24.00
1413;DHT22;701;52.526;13.408;2023-02-24T04:15:05;5.60;24.20
1413;DHT22;701;52.526;13.408;2023-02-24T04:17:55;5.70;24.60
1413;DHT22;701;52.526;13.408;2023-02-24T04:20:31;5.70;24.30
1413;DHT22;701;52.526;13.408;2023-02-24T04:23:15;5.70;24.50
1413;DHT22;701;52.526;13.408;2023-02-24T04:25:46;5.80;24.30
1413;DHT22;701;52.526;13.408;2023-02-24T04:28:14;5.80;23.80
1413;DHT22;701;52.526;13.408;2023-02-24T04:30:44;5.80;23.80
1413;DHT22;701;52.526;13.408;2023-02-24T04:33:12;5.80;23.70
1413;DHT22;701;52.526;13.408;2023-02-24T04:35:39;5.80;24.00
1413;DHT22;701;52.526;13.408;2023-02-24T04:38:05;5.80;23.60
1413;DHT22;701;52.526;13.408;2023-02-24T04:40:31;5.80;23.60
1413;DHT22;701;52.526;13.408;2023-02-24T04:42:57;5.80;23.40
1413;DHT22;701;52.526;13.408;2023-02-24T04:45:29;5.70;23.40
1413;DHT22;701;52.526;13.408;2023-02-24T04:47:57;5.80;23.60
1413;DHT22;701;52.526;13.408;2023-02-24T04:50:34;5.80;23.50
1413;DHT22;701;52.526;13.408;2023-02-24T04:53:01;5.70;23.50
1413;DHT22;701;52.526;13.408;2023-02-24T04:55:29;5.70;23.50
1413;DHT22;701;52.526;13.408;2023-02-24T04:58:01;5.70;23.70
1413;DHT22;701;52.526;13.408;2023-02-24T05:00:28;5.70;23.40
1413;DHT22;701;52.526;13.408;2023-02-24T05:03:02;5.70;23.20
1413;DHT22;701;52.526;13.408;2023-02-24T05:05:29;5.70;23.10
1413;DHT22;701;52.526;13.408;2023-02-24T05:08:08;5.70;23.00
1413;DHT22;701;52.526;13.408;2023-02-24T05:10:40;5.70;22.70
1413;DHT22;701;52.526;13.408;2023-02-24T05:13:07;5.70;23.00
1413;DHT22;701;52.526;13.408;2023-02-24T05:15:37;5.80;22.50
1413;DHT22;701;52.526;13.408;2023-02-24T05:18:05;5.70;22.60
1413;DHT22;701;52.526;13.408;2023-02-24T05:20:35;5.80;22.60
1413;DHT22;701;52.526;13.408;2023-02-24T05:23:32;5.80;22.60
1413;DHT22;701;52.526;13.408;2023-02-24T05:26:00;5.80;22.10
1413;DHT22;701;52.526;13.408;2023-02-24T05:28:26;5.70;22.10
1413;DHT22;701;52.526;13.408;2023-02-24T05:33:37;5.70;22.50
1413;DHT22;701;52.526;13.408;2023-02-24T05:36:04;5.70;22.60
1413;DHT22;701;52.526;13.408;2023-02-24T05:38:31;5.70;22.40
1413;DHT22;701;52.526;13.408;2023-02-24T05:41:04;5.70;22.40
1413;DHT22;701;52.526;13.408;2023-02-24T05:43:31;5.70;22.80
1413;DHT22;701;52.526;13.408;2023-02-24T05:46:01;5.70;22.70
1413;DHT22;701;52.526;13.408;2023-02-24T05:48:32;5.70;22.80
1413;DHT22;701;52.526;13.408;2023-02-24T05:51:04;5.70;22.90
1413;DHT22;701;52.526;13.408;2023-02-24T05:53:32;5.70;22.70
1413;DHT22;701;52.526;13.408;2023-02-24T05:56:02;5.70;22.80
1413;DHT22;701;52.526;13.408;2023-02-24T05:58:30;5.70;23.00
1413;DHT22;701;52.526;13.408;2023-02-24T06:00:57;5.70;22.70
1413;DHT22;701;52.526;13.408;2023-02-24T06:03:29;5.70;23.00
1413;DHT22;701;52.526;13.408;2023-02-24T06:06:00;5.70;22.80
1413;DHT22;701;52.526;13.408;2023-02-24T06:08:31;5.70;22.90
1413;DHT22;701;52.526;13.408;2023-02-24T06:11:10;5.70;22.70
1413;DHT22;701;52.526;13.408;2023-02-24T06:13:37;5.80;22.10
1413;DHT22;701;52.526;13.408;2023-02-24T06:16:04;5.80;22.10
1413;DHT22;701;52.526;13.408;2023-02-24T06:18:30;5.80;22.10
1413;DHT22;701;52.526;13.408;2023-02-24T06:21:00;5.80;22.10
1413;DHT22;701;52.526;13.408;2023-02-24T06:23:26;5.80;22.10
1413;DHT22;701;52.526;13.408;2023-02-24T06:25:52;5.80;22.20
1413;DHT22;701;52.526;13.408;2023-02-24T06:28:23;5.80;22.20
1413;DHT22;701;52.526;13.408;2023-02-24T06:30:49;5.80;22.10
1413;DHT22;701;52.526;13.408;2023-02-24T06:33:15;5.80;22.20
1413;DHT22;701;52.526;13.408;2023-02-24T06:35:41;5.80;22.50
1413;DHT22;701;52.526;13.408;2023-02-24T06:38:07;5.90;22.20
1413;DHT22;701;52.526;13.408;2023-02-24T06:40:33;5.90;22.40
1413;DHT22;701;52.526;13.408;2023-02-24T06:42:58;5.90;22.50
1413;DHT22;701;52.526;13.408;2023-02-24T06:45:25;6.00;22.50
1413;DHT22;701;52.526;13.408;2023-02-24T06:47:51;6.00;22.30
1413;DHT22;701;52.526;13.408;2023-02-24T06:50:18;6.10;22.50
1413;DHT22;701;52.526;13.408;2023-02-24T06:52:48;6.10;22.30
1413;DHT22;701;52.526;13.408;2023-02-24T06:55:15;6.20;22.40
1413;DHT22;701;52.526;13.408;2023-02-24T06:57:58;6.20;22.40
1413;DHT22;701;52.526;13.408;2023-02-24T07:00:29;6.30;22.30
1413;DHT22;701;52.526;13.408;2023-02-24T07:03:27;6.30;21.50
1413;DHT22;701;52.526;13.408;2023-02-24T07:06:08;6.30;20.90
1413;DHT22;701;52.526;13.408;2023-02-24T07:08:49;6.30;21.20
1413;DHT22;701;52.526;13.408;2023-02-24T07:11:16;6.40;20.70
1413;DHT22;701;52.526;13.408;2023-02-24T07:13:44;6.30;20.30
1413;DHT22;701;52.526;13.408;2023-02-24T07:16:13;6.40;20.50
1413;DHT22;701;52.526;13.408;2023-02-24T07:18:41;6.40;20.10
1413;DHT22;701;52.526;13.408;2023-02-24T07:21:11;6.40;19.40
1413;DHT22;701;52.526;13.408;2023-02-24T07:23:41;6.30;19.70
1413;DHT22;701;52.526;13.408;2023-02-24T07:26:10;6.40;19.30
1413;DHT22;701;52.526;13.408;2023-02-24T07:28:37;6.40;19.70
1413;DHT22;701;52.526;13.408;2023-02-24T07:31:06;6.40;19.00
1413;DHT22;701;52.526;13.408;2023-02-24T07:33:39;6.40;19.00
1413;DHT22;701;52.526;13.408;2023-02-24T07:36:13;6.40;19.00
1413;DHT22;701;52.526;13.408;2023-02-24T07:38:44;6.40;18.10
1413;DHT22;701;52.526;13.408;2023-02-24T07:41:12;6.40;17.70
1413;DHT22;701;52.526;13.408;2023-02-24T07:43:40;6.40;18.60
1413;DHT22;701;52.526;13.408;2023-02-24T07:46:14;6.40;17.70
1413;DHT22;701;52.526;13.408;2023-02-24T07:48:41;6.40;16.60
1413;DHT22;701;52.526;13.408;2023-02-24T07:53:34;6.40;16.10
1413;DHT22;701;52.526;13.408;2023-02-24T07:56:05;6.50;16.60
1413;DHT22;701;52.526;13.408;2023-02-24T07:58:35;6.60;16.10
1413;DHT22;701;52.526;13.408;2023-02-24T08:01:01;6.60;15.40
1413;DHT22;701;52.526;13.408;2023-02-24T08:03:34;6.60;15.40
1413;DHT22;701;52.526;13.408;2023-02-24T08:06:08;6.70;15.10
1413;DHT22;701;52.526;13.408;2023-02-24T08:08:41;6.80;14.90
1413;DHT22;701;52.526;13.408;2023-02-24T08:11:30;7.00;14.30
1413;DHT22;701;52.526;13.408;2023-02-24T08:14:04;7.10;14.20
1413;DHT22;701;52.526;13.408;2023-02-24T08:16:36;7.10;14.00
1413;DHT22;701;52.526;13.408;2023-02-24T08:19:06;7.20;14.10
1413;DHT22;701;52.526;13.408;2023-02-24T08:21:32;7.30;14.50
1413;DHT22;701;52.526;13.408;2023-02-24T08:24:06;7.30;14.30
1413;DHT22;701;52.526;13.408;2023-02-24T08:26:47;7.40;14.20
1413;DHT22;701;52.526;13.408;2023-02-24T08:29:32;7.50;14.10
1413;DHT22;701;52.526;13.408;2023-02-24T08:32:08;7.50;14.00
1413;DHT22;701;52.526;13.408;2023-02-24T08:34:37;7.40;13.70
1413;DHT22;701;52.526;13.408;2023-02-24T08:37:04;7.50;14.20
1413;DHT22;701;52.526;13.408;2023-02-24T08:39:30;7.60;14.30
1413;DHT22;701;52.526;13.408;2023-02-24T08:42:01;7.70;14.70
1413;DHT22;701;52.526;13.408;2023-02-24T08:44:27;7.90;13.90
1413;DHT22;701;52.526;13.408;2023-02-24T08:46:54;8.00;13.50
1413;DHT22;701;52.526;13.408;2023-02-24T08:49:22;8.20;13.40
1413;DHT22;701;52.526;13.408;2023-02-24T08:51:53;8.30;12.90
1413;DHT22;701;52.526;13.408;2023-02-24T08:54:21;8.30;12.90
1413;DHT22;701;52.526;13.408;2023-02-24T08:56:53;8.40;12.60
1413;DHT22;701;52.526;13.408;2023-02-24T08:59:22;8.60;12.50
1413;DHT22;701;52.526;13.408;2023-02-24T09:02:20;8.60;11.70
1413;DHT22;701;52.526;13.408;2023-02-24T09:04:50;8.70;11.20
1413;DHT22;701;52.526;13.408;2023-02-24T09:07:26;8.60;11.10
1413;DHT22;701;52.526;13.408;2023-02-24T09:09:53;8.60;11.40
1413;DHT22;701;52.526;13.408;2023-02-24T09:12:27;8.60;11.50
1413;DHT22;701;52.526;13.408;2023-02-24T09:14:59;8.70;11.40
1413;DHT22;701;52.526;13.408;2023-02-24T09:17:32;8.70;11.40
1413;DHT22;701;52.526;13.408;2023-02-24T09:20:19;8.70;11.50
1413;DHT22;701;52.526;13.408;2023-02-24T09:23:04;8.80;11.60
1413;DHT22;701;52.526;13.408;2023-02-24T09:25:37;8.80;11.40
1413;DHT22;701;52.526;13.408;2023-02-24T09:30:45;8.70;11.50
1413;DHT22;701;52.526;13.408;2023-02-24T09:35:57;8.60;11.60
1413;DHT22;701;52.526;13.408;2023-02-24T09:38:39;8.60;11.50
1413;DHT22;701;52.526;13.408;2023-02-24T09:41:37;8.60;11.60
1413;DHT22;701;52.526;13.408;2023-02-24T09:44:45;8.60;11.80
1413;DHT22;701;52.526;13.408;2023-02-24T09:47:21;8.60;11.10
1413;DHT22;701;52.526;13.408;2023-02-24T09:50:29;8.60;11.50
1413;DHT22;701;52.526;13.408;2023-02-24T09:53:04;8.60;11.50
1413;DHT22;701;52.526;13.408;2023-02-24T10:09:17;8.90;10.30
1413;DHT22;701;52.526;13.408;2023-02-24T10:11:54;8.80;10.50
1413;DHT22;701;52.526;13.408;2023-02-24T10:14:50;8.80;10.70
1413;DHT22;701;52.526;13.408;2023-02-24T10:17:21;8.80;10.60
1413;DHT22;701;52.526;13.408;2023-02-24T10:20:13;8.80;10.80
1413;DHT22;701;52.526;13.408;2023-02-24T10:25:37;9.00;10.40
1413;DHT22;701;52.526;13.408;2023-02-24T10:30:55;9.10;9.60
1413;DHT22;701;52.526;13.408;2023-02-24T10:33:40;9.00;9.50
1413;DHT22;701;52.526;13.408;2023-02-24T10:36:20;9.00;9.50
1413;DHT22;701;52.526;13.408;2023-02-24T10:38:55;9.00;9.60
1413;DHT22;701;52.526;13.408;2023-02-24T10:41:22;9.10;9.60
1413;DHT22;701;52.526;13.408;2023-02-24T10:43:55;9.10;9.80
1413;DHT22;701;52.526;13.408;2023-02-24T10:46:27;9.10;9.60
1413;DHT22;701;52.526;13.408;2023-02-24T10:49:00;9.10;9.60
1413;DHT22;701;52.526;13.408;2023-02-24T10:51:39;9.00;9.60
1413;DHT22;701;52.526;13.408;2023-02-24T10:54:18;8.90;9.40
1413;DHT22;701;52.526;13.408;2023-02-24T10:56:50;8.90;10.50
1413;DHT22;701;52.526;13.408;2023-02-24T11:02:37;8.70;12.00
1413;DHT22;701;52.526;13.408;2023-02-24T11:05:39;8.60;12.70
1413;DHT22;701;52.526;13.408;2023-02-24T11:08:21;8.50;13.90
1413;DHT22;701;52.526;13.408;2023-02-24T11:13:57;8.20;16.40
1413;DHT22;701;52.526;13.408;2023-02-24T11:16:49;8.10;16.60
1413;DHT22;701;52.526;13.408;2023-02-24T11:19:54;8.00;17.90
1413;DHT22;701;52.526;13.408;2023-02-24T11:22:26;7.80;18.70
1413;DHT22;701;52.526;13.408;2023-02-24T11:24:52;7.60;19.60
1413;DHT22;701;52.526;13.408;2023-02-24T11:27:22;7.50;19.60
1413;DHT22;701;52.526;13.408;2023-02-24T11:35:24;7.30;22.40
1413;DHT22;701;52.526;13.408;2023-02-24T11:38:03;7.20;23.00
1413;DHT22;701;52.526;13.408;2023-02-24T11:40:40;7.20;23.00
1413;DHT22;701;52.526;13.408;2023-02-24T11:43:12;7.10;23.00
1413;DHT22;701;52.526;13.408;2023-02-24T11:46:09;7.10;23.70
1413;DHT22;701;52.526;13.408;2023-02-24T11:48:39;6.90;24.10
1413;DHT22;701;52.526;13.408;2023-02-24T11:51:21;6.90;24.40
1413;DHT22;701;52.526;13.408;2023-02-24T11:54:01;6.90;24.90
1413;DHT22;701;52.526;13.408;2023-02-24T11:56:41;6.80;24.70
1413;DHT22;701;52.526;13.408;2023-02-24T12:07:20;6.70;26.20
1413;DHT22;701;52.526;13.408;2023-02-24T12:09:59;6.60;26.20
1413;DHT22;701;52.526;13.408;2023-02-24T12:13:04;6.60;26.20
1413;DHT22;701;52.526;13.408;2023-02-24T12:15:49;6.60;26.20
1413;DHT22;701;52.526;13.408;2023-02-24T12:18:32;6.60;26.20
1413;DHT22;701;52.526;13.408;2023-02-24T12:21:19;6.50;26.60
1413;DHT22;701;52.526;13.408;2023-02-24T12:23:47;6.50;26.10
1413;DHT22;701;52.526;13.408;2023-02-24T12:29:13;6.50;26.50
1413;DHT22;701;52.526;13.408;2023-02-24T12:35:08;6.40;26.50
1413;DHT22;701;52.526;13.408;2023-02-24T12:38:03;6.40;26.70
1413;DHT22;701;52.526;13.408;2023-02-24T12:40:45;6.40;26.80
1413;DHT22;701;52.526;13.408;2023-02-24T12:43:42;6.40;27.30
1413;DHT22;701;52.526;13.408;2023-02-24T12:46:32;6.40;27.00
1413;DHT22;701;52.526;13.408;2023-02-24T12:49:21;6.50;27.60
1413;DHT22;701;52.526;13.408;2023-02-24T12:52:15;6.50;26.90
1413;DHT22;701;52.526;13.408;2023-02-24T12:57:48;6.50;27.30
1413;DHT22;701;52.526;13.408;2023-02-24T13:05:42;6.60;27.20
1413;DHT22;701;52.526;13.408;2023-02-24T13:11:24;6.70;27.30
1413;DHT22;701;52.526;13.408;2023-02-24T13:14:02;6.70;27.40
1413;DHT22;701;52.526;13.408;2023-02-24T13:16:33;6.60;27.30
1413;DHT22;701;52.526;13.408;2023-02-24T13:19:50;6.60;27.40
1413;DHT22;701;52.526;13.408;2023-02-24T13:22:15;6.50;27.40
1413;DHT22;701;52.526;13.408;2023-02-24T13:27:31;6.40;28.40
1413;DHT22;701;52.526;13.408;2023-02-24T13:32:46;6.30;28.60
1413;DHT22;701;52.526;13.408;2023-02-24T13:37:49;6.20;28.50
1413;DHT22;701;52.526;13.408;2023-02-24T13:43:03;6.20;29.10
1413;DHT22;701;52.526;13.408;2023-02-24T13:45:53;6.20;29.40
1413;DHT22;701;52.526;13.408;2023-02-24T13:56:55;6.00;29.30
1413;DHT22;701;52.526;13.408;2023-02-24T14:04:51;5.80;30.20
1413;DHT22;701;52.526;13.408;2023-02-24T14:07:26;5.80;30.20
1413;DHT22;701;52.526;13.408;2023-02-24T14:09:56;5.70;30.20
1413;DHT22;701;52.526;13.408;2023-02-24T14:12:26;5.70;30.30
1413;DHT22;701;52.526;13.408;2023-02-24T14:14:54;5.70;30.70
1413;DHT22;701;52.526;13.408;2023-02-24T14:17:29;5.60;30.80
1413;DHT22;701;52.526;13.408;2023-02-24T14:22:34;5.60;31.00
1413;DHT22;701;52.526;13.408;2023-02-24T14:25:03;5.60;31.50
1413;DHT22;701;52.526;13.408;2023-02-24T14:27:29;5.60;31.60
1413;DHT22;701;52.526;13.408;2023-02-24T14:29:55;5.50;31.50
1413;DHT22;701;52.526;13.408;2023-02-24T14:32:23;5.50;31.40
1413;DHT22;701;52.526;13.408;2023-02-24T14:34:51;5.60;31.50
1413;DHT22;701;52.526;13.408;2023-02-24T14:37:21;5.60;31.30
1413;DHT22;701;52.526;13.408;2023-02-24T14:39:53;5.60;31.60
1413;DHT22;701;52.526;13.408;2023-02-24T14:42:20;5.50;31.50
1413;DHT22;701;52.526;13.408;2023-02-24T14:44:51;5.50;31.60
1413;DHT22;701;52.526;13.408;2023-02-24T14:47:20;5.50;31.70
1413;DHT22;701;52.526;13.408;2023-02-24T14:50:01;5.50;31.80
1413;DHT22;701;52.526;13.408;2023-02-24T14:52:38;5.50;32.00
1413;DHT22;701;52.526;13.408;2023-02-24T14:55:10;5.50;32.10
1413;DHT22;701;52.526;13.408;2023-02-24T14:57:44;5.50;32.80
1413;DHT22;701;52.526;13.408;2023-02-24T15:00:22;5.50;32.90
1413;DHT22;701;52.526;13.408;2023-02-24T15:02:54;5.50;33.00
1413;DHT22;701;52.526;13.408;2023-02-24T15:05:21;5.50;33.00
1413;DHT22;701;52.526;13.408;2023-02-24T15:07:47;5.50;33.00
1413;DHT22;701;52.526;13.408;2023-02-24T15:10:22;5.50;33.00
1413;DHT22;701;52.526;13.408;2023-02-24T15:12:56;5.50;33.40
1413;DHT22;701;52.526;13.408;2023-02-24T15:15:26;5.50;33.70
1413;DHT22;701;52.526;13.408;2023-02-24T15:18:02;5.50;33.50
1413;DHT22;701;52.526;13.408;2023-02-24T15:20:36;5.50;33.40
1413;DHT22;701;52.526;13.408;2023-02-24T15:23:03;5.50;33.60
1413;DHT22;701;52.526;13.408;2023-02-24T15:25:43;5.50;34.10
1413;DHT22;701;52.526;13.408;2023-02-24T15:28:25;5.50;34.00
1413;DHT22;701;52.526;13.408;2023-02-24T15:31:27;5.50;33.70
1413;DHT22;701;52.526;13.408;2023-02-24T15:33:59;5.50;33.60
1413;DHT22;701;52.526;13.408;2023-02-24T15:36:31;5.50;33.70
1413;DHT22;701;52.526;13.408;2023-02-24T15:39:07;5.50;33.90
1413;DHT22;701;52.526;13.408;2023-02-24T15:41:42;5.50;33.90
1413;DHT22;701;52.526;13.408;2023-02-24T15:46:52;5.40;34.00
1413;DHT22;701;52.526;13.408;2023-02-24T15:49:18;5.40;33.90
1413;DHT22;701;52.526;13.408;2023-02-24T15:51:46;5.40;33.80
1413;DHT22;701;52.526;13.408;2023-02-24T15:54:32;5.40;33.90
1413;DHT22;701;52.526;13.408;2023-02-24T15:57:00;5.40;33.80
1413;DHT22;701;52.526;13.408;2023-02-24T15:59:27;5.40;33.80
1413;DHT22;701;52.526;13.408;2023-02-24T16:01:53;5.40;33.50
1413;DHT22;701;52.526;13.408;2023-02-24T16:04:20;5.40;32.90
1413;DHT22;701;52.526;13.408;2023-02-24T16:06:49;5.40;33.60
1413;DHT22;701;52.526;13.408;2023-02-24T16:09:35;5.40;33.70
1413;DHT22;701;52.526;13.408;2023-02-24T16:12:06;5.40;33.70
1413;DHT22;701;52.526;13.408;2023-02-24T16:14:34;5.40;33.90
1413;DHT22;701;52.526;13.408;2023-02-24T16:17:04;5.40;33.70
1413;DHT22;701;52.526;13.408;2023-02-24T16:19:31;5.40;33.70
1413;DHT22;701;52.526;13.408;2023-02-24T16:21:56;5.40;34.00
1413;DHT22;701;52.526;13.408;2023-02-24T16:24:22;5.40;34.00
1413;DHT22;701;52.526;13.408;2023-02-24T16:26:48;5.40;34.10
1413;DHT22;701;52.526;13.408;2023-02-24T16:29:14;5.40;34.00
1413;DHT22;701;52.526;13.408;2023-02-24T16:31:40;5.40;34.30
1413;DHT22;701;52.526;13.408;2023-02-24T16:34:06;5.40;34.40
1413;DHT22;701;52.526;13.408;2023-02-24T16:36:32;5.40;34.30
1413;DHT22;701;52.526;13.408;2023-02-24T16:38:58;5.40;34.60
1413;DHT22;701;52.526;13.408;2023-02-24T16:41:25;5.40;34.50
1413;DHT22;701;52.526;13.408;2023-02-24T16:43:51;5.40;34.40
1413;DHT22;701;52.526;13.408;2023-02-24T16:46:20;5.40;34.60
1413;DHT22;701;52.526;13.408;2023-02-24T16:48:49;5.40;34.80
1413;DHT22;701;52.526;13.408;2023-02-24T16:51:15;5.40;34.80
1413;DHT22;701;52.526;13.408;2023-02-24T16:53:41;5.40;35.10
1413;DHT22;701;52.526;13.408;2023-02-24T16:56:07;5.40;35.00
1413;DHT22;701;52.526;13.408;2023-02-24T16:58:34;5.40;35.00
1413;DHT22;701;52.526;13.408;2023-02-24T17:01:00;5.40;34.90
1413;DHT22;701;52.526;13.408;2023-02-24T17:03:47;5.40;35.20
1413;DHT22;701;52.526;13.408;2023-02-24T17:06:14;5.50;35.00
1413;DHT22;701;52.526;13.408;2023-02-24T17:08:40;5.50;34.90
1413;DHT22;701;52.526;13.408;2023-02-24T17:11:17;5.50;35.00
1413;DHT22;701;52.526;13.408;2023-02-24T17:13:43;5.50;34.90
1413;DHT22;701;52.526;13.408;2023-02-24T17:16:10;5.50;35.00
1413;DHT22;701;52.526;13.408;2023-02-24T17:18:36;5.50;35.00
1413;DHT22;701;52.526;13.408;2023-02-24T17:21:03;5.50;35.30
1413;DHT22;701;52.526;13.408;2023-02-24T17:23:28;5.40;35.00
1413;DHT22;701;52.526;13.408;2023-02-24T17:25:55;5.50;35.20
1413;DHT22;701;52.526;13.408;2023-02-24T17:28:23;5.50;35.20
1413;DHT22;701;52.526;13.408;2023-02-24T17:30:49;5.40;35.20
1413;DHT22;701;52.526;13.408;2023-02-24T17:33:15;5.50;35.20
1413;DHT22;701;52.526;13.408;2023-02-24T17:35:41;5.40;35.30
1413;DHT22;701;52.526;13.408;2023-02-24T17:38:11;5.40;35.40
1413;DHT22;701;52.526;13.408;2023-02-24T17:40:39;5.40;35.20
1413;DHT22;701;52.526;13.408;2023-02-24T17:43:05;5.50;35.30
1413;DHT22;701;52.526;13.408;2023-02-24T17:45:30;5.40;35.00
1413;DHT22;701;52.526;13.408;2023-02-24T17:47:56;5.40;35.20
1413;DHT22;701;52.526;13.408;2023-02-24T17:50:22;5.40;35.50
1413;DHT22;701;52.526;13.408;2023-02-24T17:52:48;5.40;35.40
1413;DHT22;701;52.526;13.408;2023-02-24T17:55:13;5.50;35.50
1413;DHT22;701;52.526;13.408;2023-02-24T17:57:39;5.50;36.30
1413;DHT22;701;52.526;13.408;2023-02-24T18:00:06;5.50;35.40
1413;DHT22;701;52.526;13.408;2023-02-24T18:02:38;5.50;35.30
1413;DHT22;701;52.526;13.408;2023-02-24T18:05:04;5.50;35.20
1413;DHT22;701;52.526;13.408;2023-02-24T18:07:30;5.50;35.30
1413;DHT22;701;52.526;13.408;2023-02-24T18:09:56;5.50;35.40
1413;DHT22;701;52.526;13.408;2023-02-24T18:12:24;5.60;35.30
1413;DHT22;701;52.526;13.408;2023-02-24T18:14:50;5.60;35.30
1413;DHT22;701;52.526;13.408;2023-02-24T18:17:17;5.60;35.20
1413;DHT22;701;52.526;13.408;2023-02-24T18:19:43;5.60;35.30
1413;DHT22;701;52.526;13.408;2023-02-24T18:22:08;5.60;35.20
1413;DHT22;701;52.526;13.408;2023-02-24T18:24:35;5.60;35.20
1413;DHT22;701;52.526;13.408;2023-02-24T18:27:02;5.70;35.30
1413;DHT22;701;52.526;13.408;2023-02-24T18:29:28;5.70;35.30
1413;DHT22;701;52.526;13.408;2023-02-24T18:31:54;5.70;35.20
1413;DHT22;701;52.526;13.408;2023-02-24T18:34:20;5.70;35.10
1413;DHT22;701;52.526;13.408;2023-02-24T18:36:46;5.70;35.10
1413;DHT22;701;52.526;13.408;2023-02-24T18:39:12;5.70;35.00
1413;DHT22;701;52.526;13.408;2023-02-24T18:41:40;5.70;35.20
1413;DHT22;701;52.526;13.408;2023-02-24T18:44:07;5.70;35.20
1413;DHT22;701;52.526;13.408;2023-02-24T18:46:33;5.70;35.30
1413;DHT22;701;52.526;13.408;2023-02-24T18:48:59;5.70;35.40
1413;DHT22;701;52.526;13.408;2023-02-24T18:51:25;5.70;35.20
1413;DHT22;701;52.526;13.408;2023-02-24T18:53:51;5.80;35.30
1413;DHT22;701;52.526;13.408;2023-02-24T18:56:20;5.80;35.20
1413;DHT22;701;52.526;13.408;2023-02-24T18:58:47;5.80;35.10
1413;DHT22;701;52.526;13.408;2023-02-24T19:03:52;5.80;35.20
1413;DHT22;701;52.526;13.408;2023-02-24T19:06:18;5.80;35.00
1413;DHT22;701;52.526;13.408;2023-02-24T19:08:45;5.80;35.10
1413;DHT22;701;52.526;13.408;2023-02-24T19:11:18;5.90;35.10
1413;DHT22;701;52.526;13.408;2023-02-24T19:13:45;5.80;35.00
1413;DHT22;701;52.526;13.408;2023-02-24T19:16:15;5.90;34.90
1413;DHT22;701;52.526;13.408;2023-02-24T19:18:42;5.90;35.10
1413;DHT22;701;52.526;13.408;2023-02-24T19:21:09;5.90;35.00
1413;DHT22;701;52.526;13.408;2023-02-24T19:23:36;5.90;34.80